createdAt,value
2022-12-18T00:02:34.008Z,93.72
2022-12-18T00:07:33.778Z,94.25
2022-12-18T00:12:33.747Z,94.10
2022-12-18T00:17:33.712Z,94.15
2022-12-18T00:22:33.668Z,93.89
2022-12-18T00:27:33.646Z,94.21
2022-12-18T00:32:33.607Z,95.42
2022-12-18T00:37:33.568Z,96.48
2022-12-18T00:42:33.533Z,96.06
2022-12-18T00:47:33.510Z,95.28
2022-12-18T00:52:33.481Z,94.95
2022-12-18T00:57:33.457Z,94.81
2022-12-18T01:02:33.546Z,94.49
2022-12-18T01:07:33.379Z,94.06
2022-12-18T01:12:33.371Z,94.81
2022-12-18T01:17:33.331Z,94.74
2022-12-18T01:22:33.288Z,94.59
2022-12-18T01:27:33.257Z,93.96
2022-12-18T01:32:33.225Z,94.06
2022-12-18T01:37:33.173Z,93.79
2022-12-18T01:42:33.125Z,93.85
2022-12-18T01:47:33.084Z,93.10
2022-12-18T01:52:33.054Z,93.21
2022-12-18T01:57:33.027Z,93.21
2022-12-18T02:02:33.101Z,93.57
2022-12-18T02:07:32.979Z,93.04
2022-12-18T02:12:32.947Z,93.68
2022-12-18T02:17:32.934Z,94.64
2022-12-18T02:22:32.905Z,94.42
2022-12-18T02:27:32.863Z,94.85
2022-12-18T02:32:32.865Z,94.81
2022-12-18T02:37:32.828Z,94.38
2022-12-18T02:42:32.809Z,94.64
2022-12-18T02:47:32.784Z,94.53
2022-12-18T02:52:32.751Z,94.95
2022-12-18T02:57:32.721Z,96.48
2022-12-18T03:02:32.907Z,95.48
2022-12-18T03:07:32.664Z,95.59
2022-12-18T03:12:32.654Z,95.17
2022-12-18T03:17:32.603Z,94.53
2022-12-18T03:22:32.573Z,96.12
2022-12-18T03:27:32.533Z,98.03
2022-12-18T03:32:32.498Z,97.67
2022-12-18T03:37:32.467Z,97.99
2022-12-18T03:42:32.432Z,98.16
2022-12-18T03:47:32.416Z,97.69
2022-12-18T03:52:32.378Z,97.69
2022-12-18T03:57:32.349Z,97.65
2022-12-18T04:02:32.502Z,97.33
2022-12-18T04:07:32.281Z,96.65
2022-12-18T04:12:32.240Z,96.72
2022-12-18T04:17:32.210Z,96.92
2022-12-18T04:22:32.186Z,96.72
2022-12-18T04:27:32.156Z,96.92
2022-12-18T04:32:32.125Z,96.78
2022-12-18T04:37:32.101Z,96.67
2022-12-18T04:42:32.067Z,96.88
2022-12-18T04:47:32.037Z,96.62
2022-12-18T04:52:32.005Z,96.62
2022-12-18T04:57:31.980Z,96.52
2022-12-18T05:02:32.041Z,96.26
2022-12-18T05:07:31.927Z,96.16
2022-12-18T05:12:31.915Z,96.16
2022-12-18T05:17:31.876Z,96.80
2022-12-18T05:22:31.843Z,97.37
2022-12-18T05:27:31.824Z,97.05
2022-12-18T05:32:31.806Z,96.90
2022-12-18T05:37:31.782Z,97.05
2022-12-18T05:42:31.775Z,97.37
2022-12-18T05:47:31.738Z,97.52
2022-12-18T05:52:31.719Z,97.31
2022-12-18T05:57:31.696Z,97.31
2022-12-18T06:02:31.764Z,97.41
2022-12-18T06:07:31.655Z,96.62
2022-12-18T06:12:31.641Z,96.31
2022-12-18T06:17:31.637Z,96.09
2022-12-18T06:22:31.649Z,96.14
2022-12-18T06:27:32.442Z,96.14
2022-12-18T06:32:31.563Z,96.29
2022-12-18T06:37:34.540Z,96.19
2022-12-18T06:42:31.552Z,96.33
2022-12-18T06:47:31.534Z,96.44
2022-12-18T06:52:31.520Z,96.69
2022-12-18T06:57:31.608Z,96.80
2022-12-18T07:02:33.550Z,97.50
2022-12-18T07:07:31.479Z,97.29
2022-12-18T07:12:31.458Z,96.97
2022-12-18T07:17:31.400Z,96.61
2022-12-18T07:22:31.388Z,96.97
2022-12-18T07:27:31.379Z,97.45
2022-12-18T07:32:31.364Z,97.56
2022-12-18T07:37:31.310Z,97.14
2022-12-18T07:42:31.309Z,96.92
2022-12-18T07:47:31.261Z,96.67
2022-12-18T07:52:31.260Z,95.82
2022-12-18T07:57:50.071Z,96.03
2022-12-18T08:02:31.299Z,95.93
2022-12-18T08:07:31.162Z,95.93
2022-12-18T08:12:31.161Z,95.82
2022-12-18T08:17:31.144Z,95.46
2022-12-18T08:22:31.143Z,94.93
2022-12-18T08:27:31.116Z,94.19
2022-12-18T08:32:31.079Z,94.29
2022-12-18T08:37:31.047Z,93.77
2022-12-18T08:42:32.893Z,93.87
2022-12-18T08:47:30.979Z,93.77
2022-12-18T08:52:30.978Z,93.34
2022-12-18T08:57:30.966Z,93.28
2022-12-18T09:02:31.115Z,93.24
2022-12-18T09:07:30.956Z,92.60
2022-12-18T09:12:30.885Z,92.07
2022-12-18T09:17:30.867Z,91.86
2022-12-18T09:22:30.785Z,91.01
2022-12-18T09:27:30.752Z,90.37
2022-12-18T09:32:30.693Z,90.10
2022-12-18T09:37:30.653Z,89.99
2022-12-18T09:42:30.617Z,90.42
2022-12-18T09:47:30.565Z,90.31
2022-12-18T09:52:30.527Z,90.99
2022-12-18T09:57:30.501Z,90.62
2022-12-18T10:02:30.541Z,91.05
2022-12-18T10:07:30.438Z,91.05
2022-12-18T10:12:30.427Z,90.59
2022-12-18T10:17:30.378Z,90.59
2022-12-18T10:22:30.334Z,91.12
2022-12-18T10:27:30.334Z,90.86
2022-12-18T10:32:30.312Z,91.18
2022-12-18T10:37:30.317Z,92.96
2022-12-18T10:42:30.255Z,93.13
2022-12-18T10:47:30.270Z,93.34
2022-12-18T10:52:30.204Z,93.19
2022-12-18T10:57:30.199Z,92.73
2022-12-18T11:02:30.361Z,92.37
2022-12-18T11:07:30.175Z,91.91
2022-12-18T11:12:30.138Z,92.33
2022-12-18T11:17:30.134Z,92.18
2022-12-18T11:22:30.161Z,90.98
2022-12-18T11:27:30.131Z,90.87
2022-12-18T11:32:30.111Z,90.77
2022-12-18T11:37:30.071Z,90.41
2022-12-18T11:42:30.027Z,89.56
2022-12-18T11:47:29.986Z,89.77
2022-12-18T11:52:29.935Z,89.20
2022-12-18T11:57:29.953Z,89.27
2022-12-18T12:02:30.067Z,89.31
2022-12-18T12:07:29.923Z,90.41
2022-12-18T12:12:29.899Z,90.20
2022-12-18T12:17:29.875Z,91.14
2022-12-18T12:22:29.826Z,90.72
2022-12-18T12:27:29.804Z,90.83
2022-12-18T12:32:31.373Z,90.72
2022-12-18T12:37:29.738Z,90.16
2022-12-18T12:42:29.716Z,89.94
2022-12-18T12:47:29.698Z,89.94
2022-12-18T12:52:29.648Z,90.41
2022-12-18T12:57:29.622Z,90.94
2022-12-18T13:02:29.658Z,90.69
2022-12-18T13:07:29.607Z,90.58
2022-12-18T13:12:29.509Z,91.11
2022-12-18T13:17:29.491Z,91.11
2022-12-18T13:22:29.441Z,91.46
2022-12-18T13:27:29.430Z,92.14
2022-12-18T13:32:29.374Z,91.82
2022-12-18T13:37:29.404Z,91.46
2022-12-18T13:42:29.351Z,91.36
2022-12-18T13:47:29.319Z,91.36
2022-12-18T13:52:29.272Z,91.14
2022-12-18T13:57:29.283Z,91.99
2022-12-18T14:02:29.396Z,92.41
2022-12-18T14:07:30.847Z,92.69
2022-12-18T14:12:29.175Z,93.01
2022-12-18T14:17:29.135Z,93.37
2022-12-18T14:22:29.082Z,92.31
2022-12-18T14:27:29.052Z,92.10
2022-12-18T14:32:29.002Z,91.89
2022-12-18T14:37:30.608Z,92.24
2022-12-18T14:42:29.250Z,92.24
2022-12-18T14:47:28.949Z,92.35
2022-12-18T14:52:28.926Z,92.67
2022-12-18T14:57:28.909Z,92.77
2022-12-18T15:02:29.254Z,92.56
2022-12-18T15:07:28.830Z,92.67
2022-12-18T15:12:28.821Z,93.02
2022-12-18T15:17:28.786Z,93.45
2022-12-18T15:22:28.749Z,93.24
2022-12-18T15:27:28.786Z,92.92
2022-12-18T15:32:28.738Z,92.92
2022-12-18T15:37:28.647Z,93.45
2022-12-18T15:42:28.613Z,93.45
2022-12-18T15:47:28.589Z,93.45
2022-12-18T15:52:28.553Z,93.55
2022-12-18T15:57:28.531Z,93.98
2022-12-18T16:02:28.719Z,93.66
2022-12-18T16:07:30.799Z,93.81
2022-12-18T16:12:28.408Z,93.60
2022-12-18T16:17:28.391Z,93.91
2022-12-18T16:22:28.361Z,93.53
2022-12-18T16:27:28.363Z,94.17
2022-12-18T16:32:28.340Z,93.85
2022-12-18T16:37:28.324Z,94.00
2022-12-18T16:42:28.279Z,93.68
2022-12-18T16:47:28.246Z,93.57
2022-12-18T16:52:28.211Z,93.37
2022-12-18T16:57:28.175Z,93.57
2022-12-18T17:02:28.471Z,93.62
2022-12-18T17:07:28.141Z,94.15
2022-12-18T17:12:28.076Z,93.41
2022-12-18T17:17:28.083Z,93.73
2022-12-18T17:22:28.067Z,93.41
2022-12-18T17:27:28.043Z,93.66
2022-12-18T17:32:28.035Z,93.44
2022-12-18T17:37:28.002Z,93.66
2022-12-18T17:42:27.974Z,93.34
2022-12-18T17:47:27.967Z,93.80
2022-12-18T17:52:27.918Z,93.49
2022-12-18T17:57:27.889Z,93.60
2022-12-18T18:02:27.999Z,93.38
2022-12-18T18:07:27.848Z,93.28
2022-12-18T18:12:27.822Z,92.96
2022-12-18T18:17:27.784Z,93.17
2022-12-18T18:22:27.750Z,93.07
2022-12-18T18:27:27.730Z,92.85
2022-12-18T18:32:27.691Z,92.64
2022-12-18T18:37:27.709Z,92.75
2022-12-18T18:42:27.659Z,92.29
2022-12-18T18:47:27.623Z,92.54
2022-12-18T18:52:27.613Z,91.86
2022-12-18T18:57:30.520Z,91.22
2022-12-18T19:02:27.627Z,90.76
2022-12-18T19:07:30.142Z,90.76
2022-12-18T19:12:27.550Z,90.65
2022-12-18T19:17:30.686Z,90.65
2022-12-18T19:22:27.432Z,90.33
2022-12-18T19:27:27.408Z,90.33
2022-12-18T19:32:27.470Z,90.33
2022-12-18T19:37:27.365Z,90.76
2022-12-18T19:42:34.820Z,90.86
2022-12-18T19:47:27.354Z,90.55
2022-12-18T19:52:27.323Z,90.30
2022-12-18T19:57:27.313Z,90.30
2022-12-18T20:02:28.300Z,90.08
2022-12-18T20:07:27.280Z,90.19
2022-12-18T20:12:27.240Z,90.19
2022-12-18T20:17:27.219Z,89.76
2022-12-18T20:22:27.176Z,89.66
2022-12-18T20:27:27.155Z,89.55
2022-12-18T20:32:29.599Z,89.34
2022-12-18T20:37:27.341Z,88.98
2022-12-18T20:42:27.092Z,88.88
2022-12-18T20:47:27.095Z,88.45
2022-12-18T20:52:27.028Z,88.88
2022-12-18T20:57:27.044Z,88.98
2022-12-18T21:02:27.260Z,89.09
2022-12-18T21:07:26.963Z,88.77
2022-12-18T21:12:26.940Z,88.98
2022-12-18T21:17:26.904Z,89.30
2022-12-18T21:22:26.863Z,89.20
2022-12-18T21:27:26.836Z,88.98
2022-12-18T21:32:26.801Z,89.20
2022-12-18T21:37:26.792Z,89.30
2022-12-18T21:42:26.759Z,89.40
2022-12-18T21:47:26.747Z,89.30
2022-12-18T21:52:32.562Z,89.51
2022-12-18T21:57:26.707Z,89.20
2022-12-18T22:02:26.956Z,89.40
2022-12-18T22:07:26.646Z,89.20
2022-12-18T22:12:26.622Z,89.83
2022-12-18T22:17:26.599Z,88.94
2022-12-18T22:22:26.564Z,89.26
2022-12-18T22:27:26.539Z,89.05
2022-12-18T22:32:30.919Z,89.15
2022-12-18T22:37:26.502Z,88.94
2022-12-18T22:42:26.465Z,89.47
2022-12-18T22:47:29.748Z,88.94
2022-12-18T22:52:26.413Z,89.05
2022-12-18T22:57:26.383Z,88.37
2022-12-18T23:02:26.517Z,88.69
2022-12-18T23:07:26.330Z,88.48
2022-12-18T23:12:26.290Z,88.80
2022-12-18T23:17:26.265Z,88.17
2022-12-18T23:22:26.239Z,87.85
2022-12-18T23:27:26.210Z,87.42
2022-12-18T23:32:26.169Z,87.42
2022-12-18T23:37:50.303Z,87.38
2022-12-18T23:42:26.146Z,87.07
2022-12-18T23:47:26.124Z,87.10
2022-12-18T23:52:26.092Z,87.53
2022-12-18T23:57:26.061Z,87.32
